Time;durP1;ratioP1;P1;durP2;ratioP2;P2;SDS_P1;SDS_P2;PMS_P1;PMS_P2;Temp;Humidity;BMP_temperature;BMP_pressure;BME280_temperature;BME280_humidity;BME280_pressure;Samples;Min_cycle;Max_cycle;Signal;HPM_P1;HPM_P2
2023/08/10 00:01:52;;;;;;;2.67;2.38;;;;;;;13.18;100.00;101912.00;5037678;28;20465;-65
2023/08/10 00:04:17;;;;;;;3.65;2.10;;;;;;;13.21;100.00;101915.59;5046917;28;20013;-65
2023/08/10 00:06:43;;;;;;;5.00;2.50;;;;;;;13.24;100.00;101911.34;5047090;28;20033;-65
2023/08/10 00:09:08;;;;;;;2.97;2.08;;;;;;;13.24;100.00;101914.81;5046621;28;20033;-65
2023/08/10 00:11:34;;;;;;;3.35;2.13;;;;;;;13.26;100.00;101917.50;5043982;28;20021;-65
2023/08/10 00:14:00;;;;;;;4.95;2.58;;;;;;;13.26;100.00;101920.97;5046546;28;20492;-65
2023/08/10 00:16:25;;;;;;;5.78;2.78;;;;;;;13.26;100.00;101925.31;5035066;28;20010;-65
2023/08/10 00:18:50;;;;;;;6.35;2.70;;;;;;;13.27;100.00;101927.06;5031262;28;20056;-65
2023/08/10 00:21:15;;;;;;;4.90;2.15;;;;;;;13.28;100.00;101931.44;5037313;28;20048;-65
2023/08/10 00:23:41;;;;;;;2.47;2.28;;;;;;;13.29;100.00;101928.91;5043183;28;20017;-65
2023/08/10 00:26:08;;;;;;;4.75;2.47;;;;;;;13.31;100.00;101916.81;5027375;28;20029;-65
2023/08/10 00:28:33;;;;;;;3.50;2.63;;;;;;;13.31;100.00;101927.25;5049051;28;20540;-65
2023/08/10 00:30:59;;;;;;;5.05;2.42;;;;;;;13.32;100.00;101922.94;5040239;28;20108;-65
2023/08/10 00:33:24;;;;;;;4.53;2.80;;;;;;;13.32;100.00;101922.94;5048883;28;20142;-65
2023/08/10 00:35:49;;;;;;;6.80;2.83;;;;;;;13.31;100.00;101927.25;5050889;28;20025;-65
2023/08/10 00:38:15;;;;;;;5.22;2.30;;;;;;;13.31;100.00;101926.38;5051188;28;20017;-64
2023/08/10 00:40:40;;;;;;;5.50;2.72;;;;;;;13.32;100.00;101930.75;5044845;28;20021;-65
2023/08/10 00:43:06;;;;;;;6.18;2.92;;;;;;;13.32;100.00;101933.34;5044177;28;20441;-65
2023/08/10 00:45:32;;;;;;;3.80;2.75;;;;;;;13.32;100.00;101923.81;5049857;28;20083;-65
2023/08/10 00:47:58;;;;;;;7.07;3.00;;;;;;;13.33;100.00;101911.69;5051219;28;20074;-65
2023/08/10 00:50:24;;;;;;;7.28;2.72;;;;;;;13.32;100.00;101915.13;5031287;28;20531;-65
2023/08/10 00:52:50;;;;;;;4.70;3.28;;;;;;;13.31;100.00;101914.22;5031082;28;20116;-65
2023/08/10 00:55:16;;;;;;;3.70;2.90;;;;;;;13.31;100.00;101911.63;5037124;28;20025;-65
2023/08/10 00:57:41;;;;;;;3.97;2.70;;;;;;;13.34;100.00;101910.88;5050709;28;20082;-65
2023/08/10 01:00:10;;;;;;;3.03;2.67;;;;;;;13.36;100.00;101909.22;5037675;28;20084;-65
2023/08/10 01:02:39;;;;;;;6.05;3.55;;;;;;;13.37;100.00;101910.97;5050455;28;20060;-65
2023/08/10 01:05:06;;;;;;;3.92;3.35;;;;;;;13.38;100.00;101912.75;5042147;28;20031;-65
2023/08/10 01:07:41;;;;;;;4.53;3.58;;;;;;;13.39;100.00;101909.31;5045377;28;20028;-65
2023/08/10 01:10:20;;;;;;;4.43;3.47;;;;;;;13.39;100.00;101914.53;5050762;28;20033;-65
2023/08/10 01:12:59;;;;;;;4.75;3.63;;;;;;;13.39;100.00;101909.31;5045911;28;20025;-65
2023/08/10 01:15:35;;;;;;;3.95;3.50;;;;;;;13.39;100.00;101924.94;5030934;28;20116;-65
2023/08/10 01:18:05;;;;;;;6.13;3.78;;;;;;;13.39;100.00;101918.84;5038530;28;20025;-65
2023/08/10 01:20:31;;;;;;;4.40;3.45;;;;;;;13.39;100.00;101922.34;5049810;28;20357;-65
2023/08/10 01:22:56;;;;;;;3.95;3.53;;;;;;;13.40;100.00;101925.84;5050448;28;20020;-65
2023/08/10 01:25:25;;;;;;;5.03;3.50;;;;;;;13.41;100.00;101911.97;5049900;28;20120;-65
2023/08/10 01:27:51;;;;;;;5.25;3.67;;;;;;;13.39;100.00;101919.72;5050576;28;20032;-65
2023/08/10 01:30:16;;;;;;;4.47;3.22;;;;;;;13.39;100.00;101922.34;5050417;28;20021;-65
2023/08/10 01:32:42;;;;;;;5.53;4.53;;;;;;;13.41;100.00;101927.59;5049562;28;20491;-65
2023/08/10 01:35:10;;;;;;;4.97;3.42;;;;;;;13.41;100.00;101923.28;5049951;28;20018;-65
2023/08/10 01:37:35;;;;;;;6.82;4.00;;;;;;;13.41;100.00;101933.69;5049545;28;20423;-65
2023/08/10 01:40:01;;;;;;;5.53;3.45;;;;;;;13.39;100.00;101924.94;5049079;28;20025;-65
2023/08/10 01:42:26;;;;;;;4.30;3.30;;;;;;;13.37;100.00;101930.91;5037679;28;20027;-65
2023/08/10 01:44:52;;;;;;;6.20;3.72;;;;;;;13.35;100.00;101932.59;5036215;28;20025;-65
2023/08/10 01:47:31;;;;;;;5.05;3.70;;;;;;;13.32;100.00;101933.34;5049732;28;20075;-65
2023/08/10 01:50:00;;;;;;;10.63;4.05;;;;;;;13.29;100.00;101930.63;5046990;28;20028;-65
2023/08/10 01:52:32;;;;;;;7.57;4.43;;;;;;;13.26;100.00;101933.13;5040195;28;20029;-65
2023/08/10 01:54:59;;;;;;;5.80;3.72;;;;;;;13.23;100.00;101925.19;5045005;28;20040;-65
2023/08/10 01:57:24;;;;;;;3.88;3.50;;;;;;;13.19;100.00;101922.47;5029881;28;20494;-65
2023/08/10 01:59:50;;;;;;;6.25;4.25;;;;;;;13.15;100.00;101930.97;5047365;28;20174;-65
2023/08/10 02:02:15;;;;;;;4.82;4.00;;;;;;;13.09;100.00;101926.44;5037906;28;20029;-65
2023/08/10 02:04:40;;;;;;;6.30;4.13;;;;;;;13.05;100.00;101929.75;5043794;28;20215;-65
2023/08/10 02:07:06;;;;;;;5.88;4.40;;;;;;;13.00;100.00;101923.47;5041318;28;20392;-65
2023/08/10 02:09:32;;;;;;;4.78;3.95;;;;;;;12.98;100.00;101922.53;5036617;28;20103;-65
2023/08/10 02:11:57;;;;;;;6.35;4.32;;;;;;;12.92;100.00;101924.88;5037663;28;20036;-65
2023/08/10 02:14:22;;;;;;;6.40;4.25;;;;;;;12.89;100.00;101927.34;5047900;28;20279;-65
2023/08/10 02:16:48;;;;;;;4.57;4.05;;;;;;;12.82;100.00;101928.81;5038065;28;20126;-64
2023/08/10 02:19:13;;;;;;;5.32;3.72;;;;;;;12.79;100.00;101926.13;5047644;28;20103;-65
2023/08/10 02:21:39;;;;;;;5.60;4.00;;;;;;;12.73;100.00;101925.03;5041828;28;20048;-65
2023/08/10 02:24:04;;;;;;;4.43;3.78;;;;;;;12.71;100.00;101924.09;5049467;28;20044;-65
2023/08/10 02:26:30;;;;;;;11.02;4.30;;;;;;;12.67;100.00;101929.97;5048546;28;20029;-65
2023/08/10 02:28:55;;;;;;;6.10;3.95;;;;;;;12.64;100.00;101928.97;5048426;28;20025;-65
2023/08/10 02:31:21;;;;;;;5.03;3.95;;;;;;;12.64;100.00;101926.38;5048031;28;20025;-65
2023/08/10 02:33:46;;;;;;;5.50;3.85;;;;;;;12.59;100.00;101934.00;5041753;28;20191;-65
2023/08/10 02:36:11;;;;;;;8.60;4.28;;;;;;;12.58;100.00;101940.00;5047303;28;20354;-65
2023/08/10 02:38:36;;;;;;;4.57;4.03;;;;;;;12.53;100.00;101938.91;5048814;28;20415;-65
2023/08/10 02:41:02;;;;;;;5.82;4.45;;;;;;;12.51;100.00;101938.84;5048590;28;20032;-64
2023/08/10 02:43:27;;;;;;;5.03;4.10;;;;;;;12.48;100.00;101934.41;5048011;28;20541;-65
2023/08/10 02:45:52;;;;;;;6.60;4.03;;;;;;;12.47;100.00;101934.34;5035071;28;20034;-65
2023/08/10 02:48:17;;;;;;;6.00;4.20;;;;;;;12.44;100.00;101935.13;5048302;28;20025;-65
2023/08/10 02:50:43;;;;;;;7.93;4.28;;;;;;;12.43;100.00;101941.13;5047961;28;20033;-65
2023/08/10 02:53:08;;;;;;;6.07;4.57;;;;;;;12.41;100.00;101934.97;5048741;28;20024;-65
2023/08/10 02:55:33;;;;;;;5.28;3.67;;;;;;;12.39;100.00;101933.16;5048485;28;20020;-65
2023/08/10 02:57:58;;;;;;;6.72;3.90;;;;;;;12.35;100.00;101932.13;5048207;28;20059;-65
2023/08/10 03:00:24;;;;;;;7.75;4.05;;;;;;;12.30;100.00;101931.94;5047966;28;20076;-65
2023/08/10 03:02:50;;;;;;;5.10;3.15;;;;;;;12.28;100.00;101932.69;5048623;28;20033;-65
2023/08/10 03:05:18;;;;;;;4.05;3.65;;;;;;;12.25;100.00;101938.63;5048045;28;20497;-65
2023/08/10 03:07:44;;;;;;;4.38;3.72;;;;;;;12.20;100.00;101935.84;5047890;28;20029;-65
2023/08/10 03:10:10;;;;;;;5.18;3.72;;;;;;;12.20;100.00;101943.66;5040167;28;20033;-65
2023/08/10 03:12:35;;;;;;;6.15;3.92;;;;;;;12.18;100.00;101952.22;5043275;28;20492;-65
2023/08/10 03:15:01;;;;;;;4.28;3.85;;;;;;;12.13;100.00;101949.41;5047597;28;20028;-65
2023/08/10 03:17:27;;;;;;;5.50;4.18;;;;;;;12.11;100.00;101951.03;5047782;28;20036;-65
2023/08/10 03:19:52;;;;;;;4.10;3.45;;;;;;;12.08;100.00;101946.56;5047676;28;20082;-65
2023/08/10 03:22:17;;;;;;;4.13;3.70;;;;;;;12.09;100.00;101952.66;5047680;28;20469;-65
2023/08/10 03:24:43;;;;;;;3.90;3.50;;;;;;;12.10;100.00;101955.38;5047780;28;20025;-65
2023/08/10 03:27:08;;;;;;;6.85;4.55;;;;;;;12.10;100.00;101954.47;5047169;28;20033;-65
2023/08/10 03:29:33;;;;;;;5.45;4.32;;;;;;;12.12;100.00;101958.03;5047209;28;20104;-65
2023/08/10 03:31:58;;;;;;;5.90;4.30;;;;;;;12.11;100.00;101948.44;5047396;28;20033;-64
2023/08/10 03:34:24;;;;;;;4.95;4.43;;;;;;;12.14;100.00;101946.00;5034599;28;20025;-65
2023/08/10 03:36:49;;;;;;;4.63;4.22;;;;;;;12.14;100.00;101940.81;5047532;28;20462;-65
2023/08/10 03:39:15;;;;;;;5.43;4.90;;;;;;;12.16;100.00;101953.84;5047960;28;20044;-65
2023/08/10 03:41:40;;;;;;;5.53;4.25;;;;;;;12.16;100.00;101949.53;5033793;28;20104;-65
2023/08/10 03:44:06;;;;;;;7.88;4.43;;;;;;;12.14;100.00;101946.00;5047694;28;20052;-65
2023/08/10 03:46:31;;;;;;;6.03;4.22;;;;;;;12.12;100.00;101947.63;5046846;28;20530;-65
2023/08/10 03:48:56;;;;;;;7.28;4.15;;;;;;;12.11;100.00;101956.22;5047764;28;20365;-65
2023/08/10 03:51:22;;;;;;;5.57;4.03;;;;;;;12.12;100.00;101952.84;5047626;28;20658;-65
2023/08/10 03:53:47;;;;;;;4.20;3.80;;;;;;;12.10;100.00;101955.38;5047170;28;20056;-65
2023/08/10 03:56:12;;;;;;;7.40;4.45;;;;;;;12.10;100.00;101949.28;5032363;28;20037;-65
2023/08/10 03:58:37;;;;;;;4.40;3.75;;;;;;;12.06;100.00;101944.72;5035446;28;20033;-65
2023/08/10 04:01:06;;;;;;;9.73;4.78;;;;;;;12.03;100.00;101950.69;5045984;28;20064;-65
2023/08/10 04:03:32;;;;;;;8.15;4.03;;;;;;;11.99;100.00;101957.47;5026456;28;20044;-65
2023/08/10 04:05:57;;;;;;;4.80;4.30;;;;;;;11.99;100.00;101951.38;5040507;28;20029;-64
2023/08/10 04:08:22;;;;;;;8.40;4.53;;;;;;;11.96;100.00;101951.25;5046002;28;20539;-65
2023/08/10 04:10:47;;;;;;;7.68;4.75;;;;;;;11.95;100.00;101950.34;5044928;28;20021;-65
2023/08/10 04:13:13;;;;;;;6.13;4.50;;;;;;;11.93;100.00;101958.88;5037341;28;20029;-65
2023/08/10 04:15:38;;;;;;;5.93;4.25;;;;;;;11.92;100.00;101955.41;5041001;28;20346;-64
2023/08/10 04:18:04;;;;;;;5.78;4.32;;;;;;;11.88;100.00;101949.19;5044798;28;20029;-65
2023/08/10 04:20:30;;;;;;;4.95;4.13;;;;;;;11.86;100.00;101960.31;5045631;28;20378;-65
2023/08/10 04:22:57;;;;;;;8.35;4.95;;;;;;;11.84;100.00;101968.03;5046699;28;20028;-65
2023/08/10 04:25:23;;;;;;;6.07;4.43;;;;;;;11.83;100.00;101966.28;5046717;28;20036;-65
2023/08/10 04:27:48;;;;;;;7.65;4.60;;;;;;;11.82;100.00;101966.22;5047096;28;20028;-65
2023/08/10 04:30:13;;;;;;;5.75;4.78;;;;;;;11.84;100.00;101968.03;5035580;28;20034;-65
2023/08/10 04:32:39;;;;;;;7.75;4.60;;;;;;;11.85;100.00;101958.56;5045989;28;20055;-65
2023/08/10 04:35:04;;;;;;;8.07;5.20;;;;;;;11.86;100.00;101970.69;5047237;28;20773;-65
2023/08/10 04:37:30;;;;;;;9.00;4.88;;;;;;;11.83;100.00;101973.19;5046511;28;20021;-65
2023/08/10 04:39:55;;;;;;;8.00;4.78;;;;;;;11.82;100.00;101971.41;5046594;28;20021;-65
2023/08/10 04:42:20;;;;;;;4.90;3.67;;;;;;;11.81;100.00;101969.63;5040108;28;20029;-65
2023/08/10 04:44:46;;;;;;;6.85;4.90;;;;;;;11.80;100.00;101971.31;5040732;28;20481;-65
2023/08/10 04:47:11;;;;;;;6.97;4.75;;;;;;;11.77;100.00;101977.28;5046557;28;20025;-65
2023/08/10 04:49:36;;;;;;;9.80;4.00;;;;;;;11.74;100.00;101977.16;5047119;28;20107;-65
2023/08/10 04:52:02;;;;;;;5.28;4.78;;;;;;;11.73;100.00;101977.94;5046582;28;20512;-65
2023/08/10 04:54:27;;;;;;;6.65;4.55;;;;;;;11.72;100.00;101983.06;5046183;28;20032;-64
2023/08/10 04:56:53;;;;;;;7.40;5.07;;;;;;;11.72;100.00;101983.06;5046908;28;20087;-65
2023/08/10 04:59:18;;;;;;;9.38;4.53;;;;;;;11.73;100.00;101988.31;5046414;28;20029;-65
2023/08/10 05:01:43;;;;;;;6.65;4.95;;;;;;;11.76;100.00;101987.59;5034387;28;20021;-65
2023/08/10 05:04:09;;;;;;;6.65;4.75;;;;;;;11.82;100.00;101992.19;5046257;28;20481;-65
2023/08/10 05:06:34;;;;;;;6.18;5.57;;;;;;;11.85;100.00;101984.53;5046873;28;20013;-64
2023/08/10 05:09:01;;;;;;;7.70;6.20;;;;;;;11.89;100.00;101991.66;5046249;28;20686;-65
2023/08/10 05:11:27;;;;;;;6.80;6.07;;;;;;;11.94;100.00;101989.25;5033754;28;20021;-65
2023/08/10 05:13:52;;;;;;;7.00;6.28;;;;;;;11.95;100.00;101988.41;5048600;28;20032;-65
2023/08/10 05:16:17;;;;;;;6.97;5.65;;;;;;;12.00;100.00;101984.31;5049458;28;20070;-65
2023/08/10 05:18:42;;;;;;;8.55;5.38;;;;;;;12.05;100.00;101987.13;5049733;28;20029;-65
2023/08/10 05:21:08;;;;;;;8.50;6.95;;;;;;;12.10;100.00;101983.06;5049507;28;20045;-65
2023/08/10 05:23:33;;;;;;;8.77;7.20;;;;;;;12.14;100.00;101982.38;5049663;28;20176;-65
2023/08/10 05:25:58;;;;;;;8.05;6.88;;;;;;;12.18;100.00;101984.25;5049516;28;20025;-65
2023/08/10 05:28:24;;;;;;;10.20;7.18;;;;;;;12.20;100.00;101979.13;5049503;28;20025;-64
2023/08/10 05:30:49;;;;;;;8.70;7.70;;;;;;;12.23;100.00;101987.94;5049038;28;20039;-65
2023/08/10 05:33:14;;;;;;;7.95;7.03;;;;;;;12.28;100.00;101989.88;5049103;28;20472;-65
2023/08/10 05:35:40;;;;;;;7.07;6.38;;;;;;;12.33;100.00;101981.44;5045330;28;20075;-65
2023/08/10 05:38:06;;;;;;;8.65;6.53;;;;;;;12.40;100.00;101985.19;5043829;28;20028;-65
2023/08/10 05:40:31;;;;;;;8.60;7.38;;;;;;;12.45;100.00;101982.78;5047046;28;20052;-65
2023/08/10 05:42:57;;;;;;;11.93;6.65;;;;;;;12.52;100.00;101979.63;5047493;28;20017;-65
2023/08/10 05:45:22;;;;;;;7.57;5.93;;;;;;;12.59;100.00;101975.59;5047438;28;20055;-65
2023/08/10 05:47:50;;;;;;;6.78;5.80;;;;;;;12.66;100.00;101980.22;5046565;28;20485;-65
2023/08/10 05:50:16;;;;;;;9.00;5.80;;;;;;;12.75;100.00;101978.81;5045470;28;20059;-64
2023/08/10 05:52:44;;;;;;;7.93;6.20;;;;;;;12.85;100.00;101978.38;5046668;28;20071;-65
2023/08/10 05:55:11;;;;;;;10.13;6.20;;;;;;;12.99;100.00;101972.84;5045016;28;20025;-65
2023/08/10 05:57:36;;;;;;;7.75;5.60;;;;;;;13.11;100.00;101981.13;5046654;28;20028;-66
2023/08/10 06:00:02;;;;;;;7.22;6.03;;;;;;;13.25;100.00;101981.69;5047106;28;20476;-65
2023/08/10 06:02:27;;;;;;;8.45;5.72;;;;;;;13.38;100.00;101979.56;5042297;28;20033;-65
2023/08/10 06:04:53;;;;;;;8.05;6.40;;;;;;;13.52;100.00;101977.47;5047160;28;20025;-65
2023/08/10 06:07:18;;;;;;;7.28;5.95;;;;;;;13.64;100.00;101983.19;5046581;28;20294;-65
2023/08/10 06:09:44;;;;;;;7.90;5.97;;;;;;;13.79;100.00;101981.97;5040097;28;20082;-65
2023/08/10 06:12:10;;;;;;;6.78;4.97;;;;;;;13.90;100.00;101984.97;5046361;28;20025;-65
2023/08/10 06:14:36;;;;;;;7.53;5.25;;;;;;;14.03;100.00;101983.72;5041229;28;20025;-65
2023/08/10 06:17:03;;;;;;;6.38;5.40;;;;;;;14.17;100.00;101982.47;5046619;28;20041;-66
2023/08/10 06:19:29;;;;;;;10.10;5.78;;;;;;;14.30;100.00;101982.91;5040041;28;20385;-66
2023/08/10 06:21:54;;;;;;;6.70;5.28;;;;;;;14.45;100.00;101981.66;5040849;28;20049;-65
2023/08/10 06:24:19;;;;;;;5.13;4.50;;;;;;;14.61;100.00;101986.56;5045836;28;20425;-65
2023/08/10 06:26:45;;;;;;;8.50;4.95;;;;;;;14.79;100.00;101985.38;5044817;28;20040;-66
2023/08/10 06:29:11;;;;;;;6.75;4.55;;;;;;;14.99;100.00;101988.69;5042804;28;20025;-65
2023/08/10 06:31:36;;;;;;;5.85;4.10;;;;;;;15.22;100.00;101990.22;5046175;28;20039;-66
2023/08/10 06:34:05;;;;;;;5.65;3.67;;;;;;;15.44;100.00;101993.50;5029868;28;20490;-65
2023/08/10 06:36:30;;;;;;;4.38;3.60;;;;;;;15.59;100.00;101988.75;5039069;28;20602;-65
2023/08/10 06:38:55;;;;;;;6.25;3.55;;;;;;;15.71;100.00;101989.94;5045865;28;20056;-66
2023/08/10 06:41:21;;;;;;;6.18;3.20;;;;;;;15.85;100.00;101988.59;5046773;28;20032;-66
2023/08/10 06:43:46;;;;;;;4.22;3.33;;;;;;;15.90;100.00;101980.88;5044367;28;20040;-66
2023/08/10 06:46:12;;;;;;;5.07;3.00;;;;;;;15.97;100.00;101979.34;5045702;28;20032;-66
2023/08/10 06:48:37;;;;;;;4.88;3.15;;;;;;;16.11;100.00;101977.16;5045089;28;20025;-66
2023/08/10 06:51:02;;;;;;;4.03;3.30;;;;;;;16.21;100.00;101975.66;5044139;28;20021;-66
2023/08/10 06:53:27;;;;;;;4.88;3.70;;;;;;;16.19;100.00;101982.59;5043833;28;20033;-66
2023/08/10 06:55:53;;;;;;;4.13;2.95;;;;;;;16.34;100.00;101976.88;5045516;28;20029;-66
2023/08/10 06:58:18;;;;;;;3.50;2.85;;;;;;;16.53;100.00;101966.88;5034796;28;20025;-66
2023/08/10 07:00:44;;;;;;;4.55;2.33;;;;;;;16.71;100.00;101970.81;5044189;28;20036;-66
2023/08/10 07:03:10;;;;;;;2.25;1.90;;;;;;;16.90;100.00;101972.13;5044144;28;20082;-66
2023/08/10 07:05:39;;;;;;;7.10;2.10;;;;;;;17.01;100.00;101969.75;5045840;28;20409;-65
2023/08/10 07:08:05;;;;;;;3.25;2.53;;;;;;;17.12;100.00;101972.66;5045229;28;20033;-65
2023/08/10 07:10:31;;;;;;;4.55;2.58;;;;;;;17.25;100.00;101976.44;5045612;28;20374;-66
2023/08/10 07:12:56;;;;;;;3.20;2.55;;;;;;;17.34;100.00;101978.38;5045298;28;20029;-66
2023/08/10 07:15:22;;;;;;;5.22;2.53;;;;;;;17.47;100.00;101979.50;5045915;28;20023;-65
2023/08/10 07:17:47;;;;;;;2.80;2.35;;;;;;;17.62;100.00;101978.97;5044630;28;20032;-66
2023/08/10 07:20:13;;;;;;;5.45;2.38;;;;;;;17.71;100.00;101981.78;5045249;28;20057;-66
2023/08/10 07:22:38;;;;;;;2.30;2.03;;;;;;;17.76;100.00;101976.59;5034086;28;20115;-67
2023/08/10 07:25:05;;;;;;;3.08;2.13;;;;;;;18.06;100.00;101979.81;5045166;28;20358;-66
2023/08/10 07:27:34;;;;;;;4.00;1.75;;;;;;;18.28;100.00;101980.22;5044553;28;20473;-67
2023/08/10 07:30:00;;;;;;;2.63;1.80;;;;;;;18.52;100.00;101985.03;5040840;28;20018;-67
2023/08/10 07:32:27;;;;;;;3.75;1.67;;;;;;;18.56;93.50;101991.22;5035397;28;20029;-67
2023/08/10 07:34:52;;;;;;;4.72;1.92;;;;;;;18.77;95.03;101990.69;5046744;28;20063;-67
2023/08/10 07:37:17;;;;;;;2.70;1.50;;;;;;;18.77;89.85;101987.16;5047316;28;20039;-66
2023/08/10 07:39:43;;;;;;;2.22;0.98;;;;;;;18.92;75.18;101983.91;5047592;28;20135;-66
2023/08/10 07:42:08;;;;;;;2.95;1.40;;;;;;;19.25;80.11;101977.41;5046903;28;20025;-67
2023/08/10 07:44:33;;;;;;;1.42;0.82;;;;;;;19.56;81.30;101979.56;5047509;28;20029;-66
2023/08/10 07:46:59;;;;;;;3.42;1.05;;;;;;;19.70;73.93;101994.63;5047522;28;20036;-67
2023/08/10 07:49:24;;;;;;;1.63;0.73;;;;;;;19.94;76.47;101987.88;5047509;28;20527;-67
2023/08/10 07:51:49;;;;;;;1.85;1.02;;;;;;;20.18;73.31;101991.66;5041778;28;20470;-66
2023/08/10 07:54:15;;;;;;;1.08;0.80;;;;;;;20.37;67.95;101993.59;5039875;28;20024;-67
2023/08/10 07:56:41;;;;;;;1.42;0.93;;;;;;;20.53;66.51;101996.38;5047457;28;20337;-67
2023/08/10 07:59:07;;;;;;;1.63;1.02;;;;;;;20.81;67.45;101999.25;5047257;28;20032;-67
2023/08/10 08:01:32;;;;;;;2.08;1.17;;;;;;;21.19;66.53;101995.09;5047435;28;20031;-67
2023/08/10 08:03:57;;;;;;;2.53;1.15;;;;;;;21.41;65.23;101999.59;5035603;28;20044;-67
2023/08/10 08:06:23;;;;;;;2.15;1.10;;;;;;;21.53;61.52;101998.81;5047090;28;20108;-67
2023/08/10 08:08:49;;;;;;;2.05;1.13;;;;;;;21.65;63.68;102008.50;5037245;28;20025;-67
2023/08/10 08:11:14;;;;;;;1.38;0.65;;;;;;;21.62;60.28;101995.31;5029872;28;20036;-67
2023/08/10 08:13:40;;;;;;;2.03;0.80;;;;;;;21.92;60.77;101996.31;5041584;28;20033;-67
2023/08/10 08:16:05;;;;;;;3.17;0.82;;;;;;;22.10;61.50;101995.50;5040497;28;20032;-67
2023/08/10 08:18:48;;;;;;;2.92;0.88;;;;;;;22.33;59.51;101993.75;5041622;28;20056;-67
2023/08/10 08:21:18;;;;;;;1.13;0.60;;;;;;;22.33;53.89;101996.38;5039805;28;20052;-68
2023/08/10 08:23:45;;;;;;;2.72;0.80;;;;;;;22.21;54.44;101992.88;5040873;28;20029;-68
2023/08/10 08:26:11;;;;;;;1.20;0.80;;;;;;;22.02;52.04;101991.97;5039917;28;20025;-67
2023/08/10 08:28:37;;;;;;;2.15;1.00;;;;;;;21.78;53.73;101994.50;5037914;28;20047;-67
2023/08/10 08:31:02;;;;;;;1.50;0.80;;;;;;;22.06;56.94;101997.25;5046630;28;20032;-67
2023/08/10 08:33:28;;;;;;;2.17;0.70;;;;;;;22.28;59.76;101989.34;5047048;28;20432;-67
2023/08/10 08:35:54;;;;;;;1.05;0.80;;;;;;;21.91;54.19;102000.72;5046458;28;20094;-68
2023/08/10 08:38:19;;;;;;;2.88;0.77;;;;;;;22.31;59.05;102004.31;5046305;28;20037;-67
2023/08/10 08:40:44;;;;;;;1.27;0.75;;;;;;;22.51;55.90;102001.69;5034705;28;20025;-67
2023/08/10 08:43:11;;;;;;;1.98;0.85;;;;;;;22.71;57.21;102006.13;5046404;28;20048;-67
2023/08/10 08:45:36;;;;;;;0.60;0.60;;;;;;;22.95;59.01;102004.34;5042150;28;20028;-67
2023/08/10 08:48:03;;;;;;;2.30;1.00;;;;;;;23.09;55.53;102006.06;5048149;28;20064;-67
2023/08/10 08:50:29;;;;;;;1.90;0.68;;;;;;;23.18;53.85;102000.75;5049990;28;20021;-67
2023/08/10 08:52:55;;;;;;;0.65;0.65;;;;;;;23.32;55.18;102002.47;5049459;28;20036;-67
2023/08/10 08:55:20;;;;;;;3.40;0.63;;;;;;;23.36;54.39;102012.16;5036038;28;20036;-67
2023/08/10 08:57:47;;;;;;;2.38;0.80;;;;;;;23.16;52.68;102010.44;5040677;28;20503;-67
2023/08/10 09:00:13;;;;;;;1.83;0.88;;;;;;;23.38;56.41;102006.00;5051131;28;20036;-67
2023/08/10 09:02:39;;;;;;;1.70;0.80;;;;;;;23.57;59.10;102007.69;5040590;28;20021;-67
2023/08/10 09:05:05;;;;;;;2.25;1.10;;;;;;;23.73;56.84;102011.16;5051160;28;20079;-69
2023/08/10 09:07:30;;;;;;;1.85;1.00;;;;;;;23.45;53.22;102000.69;5050155;28;20443;-68
2023/08/10 09:09:56;;;;;;;3.42;0.80;;;;;;;23.42;53.77;101996.31;5050644;28;20105;-68
2023/08/10 09:12:32;;;;;;;2.45;1.25;;;;;;;23.20;55.43;101988.41;5049769;28;20040;-69
2023/08/10 09:15:15;;;;;;;1.95;1.00;;;;;;;22.99;58.56;101979.66;5050058;28;20154;-69
2023/08/10 09:17:44;;;;;;;2.15;1.10;;;;;;;22.80;58.15;101978.81;5049521;28;20090;-69
2023/08/10 09:20:16;;;;;;;1.02;0.88;;;;;;;22.71;63.84;101977.06;5050067;28;20051;-69
2023/08/10 09:22:41;;;;;;;1.83;1.13;;;;;;;22.59;60.67;101977.94;5043108;28;20145;-69
2023/08/10 09:25:07;;;;;;;1.33;0.82;;;;;;;22.45;61.61;101980.53;5045160;28;20100;-69
2023/08/10 09:27:33;;;;;;;2.88;1.10;;;;;;;22.21;60.35;101976.13;5042966;28;20028;-69
2023/08/10 09:30:07;;;;;;;3.08;1.00;;;;;;;21.96;60.32;101979.63;5045608;28;20033;-69
2023/08/10 09:32:33;;;;;;;3.13;0.88;;;;;;;21.97;61.76;101984.03;5049213;28;20574;-69
2023/08/10 09:34:59;;;;;;;1.85;1.05;;;;;;;21.92;61.17;101977.84;5050040;28;20032;-69
2023/08/10 09:37:25;;;;;;;1.92;1.02;;;;;;;21.82;62.30;101975.19;5039959;28;20028;-69
2023/08/10 09:40:05;;;;;;;1.02;0.68;;;;;;;21.94;63.93;101970.81;5048901;28;20059;-68
2023/08/10 09:42:31;;;;;;;1.05;0.88;;;;;;;22.05;65.45;101971.75;5040967;28;20718;-69
2023/08/10 09:44:59;;;;;;;1.83;1.20;;;;;;;22.07;63.95;101972.59;5049843;28;20029;-69
2023/08/10 09:47:24;;;;;;;3.78;1.10;;;;;;;22.06;65.38;101970.84;5049389;28;20029;-69
2023/08/10 09:49:55;;;;;;;2.65;0.90;;;;;;;21.99;67.87;101984.91;5048279;28;20025;-69
2023/08/10 09:52:21;;;;;;;1.65;1.00;;;;;;;22.06;67.40;101980.50;5047531;28;20028;-69
2023/08/10 09:54:48;;;;;;;2.10;0.80;;;;;;;22.02;64.21;101977.00;5049106;28;20500;-69
2023/08/10 09:57:15;;;;;;;2.63;1.27;;;;;;;22.07;63.94;101977.88;5049694;28;20492;-69
2023/08/10 09:59:40;;;;;;;3.35;1.15;;;;;;;22.09;63.59;101974.38;5046705;28;20021;-68
2023/08/10 10:02:09;;;;;;;1.92;1.00;;;;;;;22.18;65.00;101971.75;5047993;28;20028;-68
2023/08/10 10:04:35;;;;;;;1.73;0.88;;;;;;;22.28;66.93;101972.63;5049037;28;20160;-68
2023/08/10 10:07:01;;;;;;;1.77;1.05;;;;;;;22.39;68.76;101975.28;5041479;28;20635;-68
2023/08/10 10:09:28;;;;;;;1.95;1.20;;;;;;;22.38;63.10;101976.19;5049379;28;20027;-68
2023/08/10 10:11:55;;;;;;;3.10;1.02;;;;;;;22.34;62.01;101982.31;5048018;28;20162;-68
2023/08/10 10:14:21;;;;;;;2.10;1.35;;;;;;;22.28;64.68;101978.81;5045062;28;20036;-68
2023/08/10 10:16:49;;;;;;;1.02;0.93;;;;;;;22.30;66.59;101981.44;5044604;28;20033;-68
2023/08/10 10:19:14;;;;;;;2.15;1.55;;;;;;;22.26;66.06;101980.56;5042686;28;20033;-68
2023/08/10 10:21:40;;;;;;;2.67;1.00;;;;;;;22.21;68.19;101984.94;5040798;28;20749;-68
2023/08/10 10:24:09;;;;;;;2.78;1.10;;;;;;;22.22;71.17;101989.34;5043869;28;20037;-68
2023/08/10 10:26:35;;;;;;;3.15;1.20;;;;;;;22.23;69.60;101991.13;5045486;28;20540;-68
2023/08/10 10:29:14;;;;;;;1.73;1.00;;;;;;;22.24;70.21;101998.13;5035929;28;20040;-68
2023/08/10 10:31:40;;;;;;;3.30;1.00;;;;;;;22.25;71.25;101993.75;5037164;28;20033;-68
2023/08/10 10:34:05;;;;;;;2.08;1.10;;;;;;;22.14;68.69;101991.97;5042138;28;20041;-68
2023/08/10 10:36:33;;;;;;;3.95;1.13;;;;;;;22.16;71.11;101995.47;5045355;28;20036;-68
2023/08/10 10:39:07;;;;;;;3.22;0.80;;;;;;;22.14;71.19;101988.47;5044830;28;20051;-68
2023/08/10 10:41:36;;;;;;;2.80;1.25;;;;;;;22.11;69.21;101981.41;5047661;28;20021;-69
2023/08/10 10:44:05;;;;;;;2.83;1.15;;;;;;;22.16;69.85;101977.00;5043247;28;20037;-69
2023/08/10 10:46:31;;;;;;;1.88;1.13;;;;;;;22.16;69.44;101978.78;5043178;28;20381;-69
2023/08/10 10:48:57;;;;;;;2.58;1.42;;;;;;;22.05;65.76;101979.66;5048123;28;20032;-68
2023/08/10 10:51:23;;;;;;;1.00;0.90;;;;;;;22.01;67.21;101985.78;5047921;28;20017;-67
2023/08/10 10:53:50;;;;;;;2.22;1.42;;;;;;;22.06;68.21;101973.50;5048626;28;20080;-68
2023/08/10 10:56:15;;;;;;;3.40;1.30;;;;;;;22.12;71.39;101974.38;5048498;28;20009;-68
2023/08/10 10:58:41;;;;;;;2.53;1.40;;;;;;;22.21;74.52;101981.41;5040022;28;20021;-68
2023/08/10 11:01:06;;;;;;;2.15;1.10;;;;;;;22.27;67.77;101977.03;5048023;28;20021;-68
2023/08/10 11:03:32;;;;;;;1.95;1.30;;;;;;;22.45;70.32;101969.97;5040152;28;20520;-68
2023/08/10 11:05:57;;;;;;;2.75;1.30;;;;;;;22.60;66.34;101974.41;5042880;28;20036;-68
2023/08/10 11:08:22;;;;;;;3.78;1.58;;;;;;;22.69;64.61;101978.81;5047973;28;20029;-69
2023/08/10 11:10:51;;;;;;;1.33;1.23;;;;;;;22.73;65.92;101975.31;5045977;28;20454;-69
2023/08/10 11:13:16;;;;;;;2.88;1.42;;;;;;;22.80;66.33;101970.88;5039988;28;20029;-68
2023/08/10 11:15:45;;;;;;;2.63;1.50;;;;;;;22.90;68.85;101966.47;5047241;28;20066;-68